createdAt,value
2018-08-20T00:01:35.525Z,10.80
2018-08-20T00:04:09.652Z,11.67
2018-08-20T00:06:51.521Z,11.77
2018-08-20T00:09:21.674Z,12.70
2018-08-20T00:11:50.179Z,12.77
2018-08-20T00:14:21.067Z,13.53
2018-08-20T00:16:49.693Z,14.17
2018-08-20T00:19:18.191Z,13.70
2018-08-20T00:21:46.693Z,13.57
2018-08-20T00:24:15.141Z,12.07
2018-08-20T00:26:43.629Z,12.70
2018-08-20T00:29:12.085Z,13.07
2018-08-20T00:31:40.533Z,13.60
2018-08-20T00:34:09.061Z,14.33
2018-08-20T00:36:37.500Z,13.83
2018-08-20T00:39:07.886Z,15.40
2018-08-20T00:41:36.429Z,16.43
2018-08-20T00:44:08.562Z,15.27
2018-08-20T00:46:37.013Z,15.50
2018-08-20T00:49:05.533Z,14.83
2018-08-20T00:51:40.535Z,15.60
2018-08-20T00:54:09.042Z,15.23
2018-08-20T00:56:37.534Z,14.43
2018-08-20T00:59:05.983Z,14.57
2018-08-20T01:01:34.656Z,14.50
2018-08-20T01:04:03.659Z,15.67
2018-08-20T01:06:32.120Z,14.60
2018-08-20T01:09:00.618Z,15.23
2018-08-20T01:11:29.147Z,16.47
2018-08-20T01:13:57.594Z,14.97
2018-08-20T01:16:26.056Z,15.57
2018-08-20T01:18:54.674Z,15.83
2018-08-20T01:21:23.178Z,15.87
2018-08-20T01:23:51.611Z,16.07
2018-08-20T01:26:20.070Z,15.80
2018-08-20T01:28:48.588Z,17.80
2018-08-20T01:31:17.029Z,16.57
2018-08-20T01:33:45.486Z,17.17
2018-08-20T01:36:13.943Z,17.33
2018-08-20T01:38:42.419Z,17.17
2018-08-20T01:41:10.897Z,18.60
2018-08-20T01:43:39.365Z,18.30
2018-08-20T01:46:08.003Z,19.50
2018-08-20T01:48:36.477Z,17.60
2018-08-20T01:51:04.959Z,18.90
2018-08-20T01:53:33.465Z,19.33
2018-08-20T01:56:02.359Z,19.47
2018-08-20T01:58:30.825Z,18.90
2018-08-20T02:00:59.295Z,20.40
2018-08-20T02:03:27.761Z,20.50
2018-08-20T02:05:56.249Z,20.33
2018-08-20T02:08:24.726Z,21.70
2018-08-20T02:10:53.201Z,22.37
2018-08-20T02:13:22.678Z,21.83
2018-08-20T02:15:51.196Z,21.50
2018-08-20T02:18:19.672Z,22.60
2018-08-20T02:20:48.136Z,22.90
2018-08-20T02:23:16.609Z,22.63
2018-08-20T02:25:45.072Z,23.07
2018-08-20T02:28:13.524Z,22.20
2018-08-20T02:30:41.970Z,23.97
2018-08-20T02:33:10.497Z,24.80
2018-08-20T02:35:38.969Z,25.37
2018-08-20T02:38:07.484Z,25.23
2018-08-20T02:40:36.012Z,24.23
2018-08-20T02:43:04.486Z,25.17
2018-08-20T02:45:33.039Z,25.97
2018-08-20T02:48:01.516Z,24.07
2018-08-20T02:50:29.956Z,23.07
2018-08-20T02:52:58.479Z,24.80
2018-08-20T02:55:26.895Z,24.30
2018-08-20T02:57:55.370Z,24.97
2018-08-20T03:00:23.786Z,23.83
2018-08-20T03:02:52.278Z,23.50
2018-08-20T03:05:20.783Z,23.53
2018-08-20T03:07:49.264Z,23.03
2018-08-20T03:10:17.723Z,23.27
2018-08-20T03:12:46.187Z,23.20
2018-08-20T03:15:14.619Z,23.83
2018-08-20T03:17:43.081Z,22.87
2018-08-20T03:20:11.553Z,22.50
2018-08-20T03:22:40.121Z,22.40
2018-08-20T03:25:09.168Z,22.77
2018-08-20T03:27:37.848Z,24.00
2018-08-20T03:30:07.550Z,26.53
2018-08-20T03:32:36.010Z,25.87
2018-08-20T03:35:05.532Z,26.17
2018-08-20T03:37:33.959Z,24.47
2018-08-20T03:40:02.438Z,24.93
2018-08-20T03:42:30.912Z,24.47
2018-08-20T03:44:59.426Z,24.03
2018-08-20T03:47:27.876Z,24.23
2018-08-20T03:49:56.357Z,22.33
2018-08-20T03:52:24.899Z,24.50
2018-08-20T03:54:53.409Z,25.13
2018-08-20T03:57:21.969Z,24.80
2018-08-20T03:59:50.469Z,23.13
2018-08-20T04:02:18.979Z,23.30
2018-08-20T04:04:47.505Z,22.83
2018-08-20T04:07:16.029Z,21.60
2018-08-20T04:09:44.497Z,22.97
2018-08-20T04:12:13.815Z,22.70
2018-08-20T04:14:42.286Z,21.83
2018-08-20T04:17:10.753Z,21.37
2018-08-20T04:19:39.183Z,22.83
2018-08-20T04:22:07.744Z,21.90
2018-08-20T04:24:36.740Z,21.93
2018-08-20T04:27:05.542Z,22.97
2018-08-20T04:29:33.963Z,23.73
2018-08-20T04:32:02.397Z,22.73
2018-08-20T04:34:30.856Z,21.80
2018-08-20T04:36:59.334Z,22.70
2018-08-20T04:39:27.816Z,22.30
2018-08-20T04:41:56.277Z,22.00
2018-08-20T04:44:24.720Z,22.10
2018-08-20T04:46:53.208Z,22.57
2018-08-20T04:49:21.752Z,22.77
2018-08-20T04:51:50.252Z,23.20
2018-08-20T04:54:18.675Z,22.23
2018-08-20T04:56:47.103Z,21.40
2018-08-20T04:59:15.510Z,21.83
2018-08-20T05:01:43.938Z,22.07
2018-08-20T05:04:12.470Z,21.33
2018-08-20T05:06:40.908Z,22.17
2018-08-20T05:09:09.448Z,21.77
2018-08-20T05:11:37.887Z,22.77
2018-08-20T05:14:06.365Z,21.30
2018-08-20T05:16:34.828Z,21.37
2018-08-20T05:19:03.422Z,21.27
2018-08-20T05:21:31.840Z,20.80
2018-08-20T05:24:00.285Z,21.00
2018-08-20T05:26:28.733Z,22.27
2018-08-20T05:28:57.269Z,21.23
2018-08-20T05:31:25.739Z,21.40
2018-08-20T05:33:54.220Z,21.40
2018-08-20T05:36:22.663Z,20.80
2018-08-20T05:38:51.103Z,20.70
2018-08-20T05:41:19.513Z,18.63
2018-08-20T05:43:47.958Z,20.17
2018-08-20T05:46:16.423Z,21.20
2018-08-20T05:48:44.912Z,20.50
2018-08-20T05:51:13.402Z,19.87
2018-08-20T05:53:41.883Z,20.33
2018-08-20T05:56:10.337Z,19.10
2018-08-20T05:58:38.807Z,20.50
2018-08-20T06:01:07.301Z,20.00
2018-08-20T06:03:35.739Z,21.10
2018-08-20T06:06:04.237Z,20.37
2018-08-20T06:08:32.672Z,20.67
2018-08-20T06:11:01.110Z,20.60
2018-08-20T06:13:29.540Z,21.23
2018-08-20T06:15:58.090Z,19.93
2018-08-20T06:18:26.554Z,20.27
2018-08-20T06:20:55.073Z,19.20
2018-08-20T06:23:23.574Z,19.23
2018-08-20T06:25:52.079Z,19.20
2018-08-20T06:28:20.542Z,19.57
2018-08-20T06:30:49.031Z,18.17
2018-08-20T06:33:17.510Z,18.97
2018-08-20T06:35:45.988Z,19.73
2018-08-20T06:38:14.510Z,20.23
2018-08-20T06:40:43.020Z,18.87
2018-08-20T06:43:11.505Z,19.27
2018-08-20T06:45:40.012Z,18.13
2018-08-20T06:48:08.506Z,18.20
2018-08-20T06:50:36.990Z,18.10
2018-08-20T06:53:05.746Z,16.67
2018-08-20T06:55:34.261Z,17.13
2018-08-20T06:58:02.932Z,17.00
2018-08-20T07:00:31.894Z,17.43
2018-08-20T07:03:00.355Z,17.63
2018-08-20T07:05:28.831Z,17.00
2018-08-20T07:07:57.378Z,16.93
2018-08-20T07:10:28.106Z,15.67
2018-08-20T07:13:06.559Z,16.07
2018-08-20T07:15:35.054Z,15.27
2018-08-20T07:18:03.570Z,15.70
2018-08-20T07:20:32.037Z,16.03
2018-08-20T07:23:00.577Z,15.20
2018-08-20T07:25:29.076Z,16.13
2018-08-20T07:28:00.487Z,16.07
2018-08-20T07:30:29.018Z,14.60
2018-08-20T07:32:57.495Z,15.40
2018-08-20T07:35:26.022Z,15.10
2018-08-20T07:37:54.485Z,14.97
2018-08-20T07:40:22.984Z,14.90
2018-08-20T07:42:51.439Z,14.47
2018-08-20T07:45:19.883Z,15.13
2018-08-20T07:47:48.352Z,14.27
2018-08-20T07:50:16.833Z,13.77
2018-08-20T07:52:45.327Z,14.97
2018-08-20T07:55:13.819Z,14.33
2018-08-20T07:57:42.330Z,13.53
2018-08-20T08:00:10.908Z,14.27
2018-08-20T08:02:39.825Z,14.43
2018-08-20T08:05:09.565Z,13.43
2018-08-20T08:07:38.187Z,13.40
2018-08-20T08:10:08.721Z,14.00
2018-08-20T08:12:37.936Z,14.50
2018-08-20T08:15:07.425Z,14.50
2018-08-20T08:17:35.894Z,13.57
2018-08-20T08:20:04.897Z,13.20
2018-08-20T08:22:33.346Z,13.57
2018-08-20T08:25:01.852Z,13.33
2018-08-20T08:27:37.432Z,13.23
2018-08-20T08:30:16.029Z,12.97
2018-08-20T08:32:44.639Z,12.47
2018-08-20T08:35:13.799Z,11.67
2018-08-20T08:37:42.692Z,10.93
2018-08-20T08:40:12.928Z,11.00
2018-08-20T08:42:41.424Z,10.13
2018-08-20T08:45:13.360Z,12.57
2018-08-20T08:47:42.249Z,12.00
2018-08-20T08:50:10.964Z,11.00
2018-08-20T08:52:39.490Z,12.53
2018-08-20T08:55:08.505Z,12.07
2018-08-20T08:57:37.496Z,11.70
2018-08-20T09:00:14.685Z,12.13
2018-08-20T09:02:43.298Z,12.03
2018-08-20T09:05:12.166Z,11.87
2018-08-20T09:07:41.599Z,12.40
2018-08-20T09:10:10.734Z,11.17
2018-08-20T09:12:39.333Z,12.07
2018-08-20T09:15:15.001Z,11.90
2018-08-20T09:17:44.016Z,12.10
2018-08-20T09:20:16.594Z,16.00
2018-08-20T09:22:45.319Z,12.63
2018-08-20T09:25:14.648Z,12.93
2018-08-20T09:27:44.473Z,12.53
2018-08-20T09:30:16.743Z,12.97
2018-08-20T09:32:46.331Z,12.57
2018-08-20T09:35:14.801Z,11.73
2018-08-20T09:37:43.348Z,11.60
2018-08-20T09:40:12.473Z,11.20
2018-08-20T09:42:41.727Z,11.87
2018-08-20T09:45:11.339Z,11.60
2018-08-20T09:47:40.977Z,11.00
2018-08-20T09:50:12.041Z,10.83
2018-08-20T09:52:40.549Z,9.17
2018-08-20T09:55:09.591Z,10.40
2018-08-20T09:57:38.140Z,11.87
2018-08-20T10:00:18.073Z,11.00
2018-08-20T10:02:46.603Z,9.47
2018-08-20T10:05:15.125Z,9.00
2018-08-20T10:07:44.078Z,7.90
2018-08-20T10:10:12.603Z,7.77
2018-08-20T10:12:41.124Z,6.97
2018-08-20T10:15:09.950Z,7.50
2018-08-20T10:17:38.414Z,8.47
2018-08-20T10:20:09.042Z,9.00
2018-08-20T10:22:37.577Z,8.60
2018-08-20T10:25:06.374Z,8.73
2018-08-20T10:27:34.870Z,9.23
2018-08-20T10:30:03.377Z,9.43
2018-08-20T10:32:32.373Z,10.07
2018-08-20T10:35:01.458Z,10.57
2018-08-20T10:37:29.994Z,11.77
2018-08-20T10:39:58.470Z,11.63
2018-08-20T10:42:26.928Z,9.10
2018-08-20T10:45:00.630Z,9.37
2018-08-20T10:47:29.068Z,8.60
2018-08-20T10:49:57.562Z,8.23
2018-08-20T10:52:26.106Z,9.40
2018-08-20T10:54:54.598Z,9.57
2018-08-20T10:57:23.089Z,8.60
2018-08-20T10:59:51.544Z,4.83
2018-08-20T11:02:20.012Z,3.10
2018-08-20T11:04:51.976Z,2.70
2018-08-20T11:07:20.458Z,3.73
2018-08-20T11:09:48.946Z,4.50
2018-08-20T11:12:17.432Z,5.90
2018-08-20T11:14:45.868Z,5.27
2018-08-20T11:17:14.333Z,5.40
2018-08-20T11:19:42.772Z,5.63
2018-08-20T11:22:11.230Z,5.60
2018-08-20T11:24:39.661Z,5.40
2018-08-20T11:27:08.151Z,5.30
2018-08-20T11:29:36.593Z,5.37
2018-08-20T11:32:05.042Z,5.20
2018-08-20T11:34:33.551Z,5.40
2018-08-20T11:37:02.058Z,5.03
2018-08-20T11:39:30.505Z,5.00
2018-08-20T11:42:06.059Z,5.27
2018-08-20T11:44:34.545Z,5.07
2018-08-20T11:47:03.084Z,4.73
2018-08-20T11:49:31.494Z,3.50
2018-08-20T11:52:00.211Z,3.17
2018-08-20T11:54:28.693Z,3.00
2018-08-20T11:56:57.115Z,2.93
2018-08-20T11:59:25.601Z,3.50
2018-08-20T12:01:54.126Z,3.87
2018-08-20T12:04:23.169Z,4.40
2018-08-20T12:06:51.881Z,6.07
2018-08-20T12:09:20.361Z,6.93
2018-08-20T12:11:48.852Z,6.40
2018-08-20T12:14:17.338Z,7.10
2018-08-20T12:16:45.830Z,6.30
2018-08-20T12:19:14.296Z,7.20
2018-08-20T12:21:42.776Z,6.60
2018-08-20T12:24:11.227Z,6.77
2018-08-20T12:26:39.644Z,7.07
2018-08-20T12:29:08.091Z,6.57
2018-08-20T12:31:36.543Z,7.00
2018-08-20T12:34:05.012Z,7.37
2018-08-20T12:36:33.477Z,7.23
2018-08-20T12:39:01.980Z,7.77
2018-08-20T12:41:30.520Z,8.90
2018-08-20T12:43:58.951Z,9.07
2018-08-20T12:46:27.399Z,8.57
2018-08-20T12:48:55.818Z,9.20
2018-08-20T12:51:24.280Z,8.07
2018-08-20T12:53:52.756Z,8.00
2018-08-20T12:56:21.269Z,7.10
2018-08-20T12:58:50.794Z,7.13
2018-08-20T13:01:19.341Z,6.50
2018-08-20T13:03:48.688Z,5.53
2018-08-20T13:06:17.295Z,6.00
2018-08-20T13:08:46.707Z,4.73
2018-08-20T13:11:15.602Z,5.27
2018-08-20T13:13:44.182Z,5.00
2018-08-20T13:16:12.784Z,4.40
2018-08-20T13:18:41.123Z,4.47
2018-08-20T13:21:09.605Z,4.20
2018-08-20T13:23:38.067Z,3.83
2018-08-20T13:26:06.817Z,3.37
2018-08-20T13:28:35.307Z,2.60
2018-08-20T13:31:04.129Z,2.87
2018-08-20T13:33:32.603Z,2.30
2018-08-20T13:36:01.058Z,2.30
2018-08-20T13:38:29.535Z,2.70
2018-08-20T13:40:58.023Z,2.23
2018-08-20T13:43:26.537Z,2.47
2018-08-20T13:45:55.011Z,2.33
2018-08-20T13:48:23.509Z,2.30
2018-08-20T13:50:54.940Z,2.67
2018-08-20T13:53:23.521Z,2.00
2018-08-20T13:55:52.052Z,1.90
2018-08-20T13:58:20.568Z,3.00
2018-08-20T14:00:49.087Z,1.80
2018-08-20T14:03:17.639Z,2.23
2018-08-20T14:05:46.173Z,2.60
2018-08-20T14:08:15.873Z,2.80
2018-08-20T14:10:44.359Z,2.80
2018-08-20T14:13:12.848Z,2.80
2018-08-20T14:15:42.772Z,3.43
2018-08-20T14:18:11.306Z,3.73
2018-08-20T14:20:45.783Z,3.43
2018-08-20T14:23:14.252Z,3.80
2018-08-20T14:25:42.772Z,3.73
2018-08-20T14:28:11.297Z,3.83
2018-08-20T14:30:40.693Z,3.50
2018-08-20T14:33:09.126Z,3.50
2018-08-20T14:35:37.600Z,4.30
2018-08-20T14:38:06.132Z,4.33
2018-08-20T14:40:34.699Z,4.00
2018-08-20T14:43:03.223Z,4.30
2018-08-20T14:45:37.088Z,3.77
2018-08-20T14:48:06.222Z,4.67
2018-08-20T14:50:34.695Z,6.27
2018-08-20T14:53:03.252Z,4.80
2018-08-20T14:55:31.737Z,5.30
2018-08-20T14:58:00.228Z,4.80
2018-08-20T15:00:28.666Z,4.73
2018-08-20T15:02:57.185Z,5.00
2018-08-20T15:05:25.704Z,4.93
2018-08-20T15:07:54.173Z,4.60
2018-08-20T15:10:22.668Z,6.23
2018-08-20T15:12:51.190Z,5.53
2018-08-20T15:15:19.785Z,6.13
2018-08-20T15:17:48.197Z,6.00
2018-08-20T15:20:16.721Z,6.53
2018-08-20T15:22:45.256Z,7.47
2018-08-20T15:25:13.725Z,6.87
2018-08-20T15:27:42.224Z,6.47
2018-08-20T15:30:10.781Z,7.07
2018-08-20T15:32:39.414Z,7.80
2018-08-20T15:35:08.009Z,8.00
2018-08-20T15:37:36.487Z,7.27
2018-08-20T15:40:05.536Z,7.23
2018-08-20T15:42:34.173Z,7.33
2018-08-20T15:45:02.685Z,7.50
2018-08-20T15:47:31.195Z,6.97
2018-08-20T15:49:59.717Z,6.47
2018-08-20T15:52:28.155Z,6.20
2018-08-20T15:54:56.609Z,6.80
2018-08-20T15:57:25.190Z,6.67
2018-08-20T15:59:53.791Z,5.70
2018-08-20T16:02:22.288Z,5.90
2018-08-20T16:04:50.743Z,5.47
2018-08-20T16:07:19.215Z,4.97
2018-08-20T16:09:48.426Z,4.93
2018-08-20T16:12:16.963Z,4.83
2018-08-20T16:14:45.450Z,4.90
2018-08-20T16:17:13.906Z,5.10
2018-08-20T16:19:42.408Z,5.13
2018-08-20T16:22:10.932Z,5.30
2018-08-20T16:24:39.404Z,4.73
2018-08-20T16:27:07.850Z,4.80
2018-08-20T16:29:36.356Z,4.50
2018-08-20T16:32:05.008Z,4.87
2018-08-20T16:34:33.498Z,4.77
2018-08-20T16:37:02.001Z,5.47
2018-08-20T16:39:30.571Z,4.73
2018-08-20T16:41:59.075Z,5.13
2018-08-20T16:44:27.475Z,5.27
2018-08-20T16:46:55.932Z,4.73
2018-08-20T16:49:24.446Z,5.33
2018-08-20T16:51:52.959Z,4.93
2018-08-20T16:54:21.472Z,4.93
2018-08-20T16:56:49.911Z,6.80
2018-08-20T16:59:18.433Z,5.07
2018-08-20T17:01:46.915Z,5.20
2018-08-20T17:04:29.475Z,6.70
2018-08-20T17:06:59.392Z,7.13
2018-08-20T17:09:28.140Z,6.13
2018-08-20T17:11:56.662Z,6.57
2018-08-20T17:14:25.135Z,6.63
2018-08-20T17:16:53.933Z,6.13
2018-08-20T17:19:22.426Z,7.00
2018-08-20T17:21:50.895Z,6.20
2018-08-20T17:24:25.443Z,6.40
2018-08-20T17:26:54.108Z,6.23
2018-08-20T17:29:23.109Z,5.50
2018-08-20T17:31:51.559Z,5.80
2018-08-20T17:34:20.023Z,5.70
2018-08-20T17:36:48.471Z,5.30
2018-08-20T17:39:16.914Z,5.70
2018-08-20T17:41:45.398Z,5.10
2018-08-20T17:44:13.891Z,4.97
2018-08-20T17:46:42.384Z,5.00
2018-08-20T17:49:12.429Z,4.80
2018-08-20T17:51:40.900Z,5.07
2018-08-20T17:54:09.396Z,4.80
2018-08-20T17:56:38.106Z,4.70
2018-08-20T17:59:10.590Z,4.83
2018-08-20T18:01:39.126Z,4.73
2018-08-20T18:04:08.019Z,4.63
2018-08-20T18:06:59.826Z,4.77
2018-08-20T18:09:28.323Z,4.27
2018-08-20T18:11:57.114Z,4.00
2018-08-20T18:14:26.617Z,4.30
2018-08-20T18:16:55.160Z,4.77
2018-08-20T18:19:23.666Z,4.47
2018-08-20T18:21:52.175Z,4.10
2018-08-20T18:24:21.789Z,3.83
2018-08-20T18:26:57.387Z,3.73
2018-08-20T18:29:25.870Z,4.20
2018-08-20T18:31:56.249Z,3.70
2018-08-20T18:34:24.797Z,4.23
2018-08-20T18:36:53.373Z,4.10
2018-08-20T18:39:21.884Z,4.07
2018-08-20T18:41:59.365Z,4.20
2018-08-20T18:44:27.878Z,4.03
2018-08-20T18:46:56.457Z,4.67
2018-08-20T18:49:25.141Z,4.90
2018-08-20T18:51:59.967Z,4.40
2018-08-20T18:54:28.501Z,4.00
2018-08-20T18:57:02.083Z,4.50
2018-08-20T18:59:30.893Z,4.27
2018-08-20T19:01:59.406Z,4.30
2018-08-20T19:04:33.250Z,4.43
2018-08-20T19:07:05.966Z,4.50
2018-08-20T19:09:34.513Z,4.30
2018-08-20T19:12:03.057Z,4.57
2018-08-20T19:14:31.497Z,4.30
2018-08-20T19:16:59.965Z,4.03
2018-08-20T19:19:31.891Z,4.27
2018-08-20T19:22:01.341Z,3.77
2018-08-20T19:24:34.144Z,4.10
2018-08-20T19:27:06.896Z,4.00
2018-08-20T19:29:35.484Z,4.57
2018-08-20T19:32:04.537Z,4.20
2018-08-20T19:34:33.081Z,4.60
2018-08-20T19:37:01.814Z,4.97
2018-08-20T19:39:30.381Z,5.10
2018-08-20T19:41:58.867Z,4.70
2018-08-20T19:44:27.367Z,4.80
2018-08-20T19:46:56.179Z,4.87
2018-08-20T19:49:24.894Z,4.70
2018-08-20T19:51:53.426Z,5.27
2018-08-20T19:54:21.928Z,5.00
2018-08-20T19:56:50.391Z,4.87
2018-08-20T19:59:24.183Z,5.50
2018-08-20T20:01:53.191Z,5.20
2018-08-20T20:04:21.677Z,5.70
2018-08-20T20:06:50.197Z,5.33
2018-08-20T20:09:18.716Z,5.23
2018-08-20T20:11:48.977Z,5.33
2018-08-20T20:14:17.470Z,5.03
2018-08-20T20:16:53.222Z,4.93
2018-08-20T20:19:22.084Z,5.13
2018-08-20T20:21:50.580Z,5.27
2018-08-20T20:24:19.069Z,5.70
2018-08-20T20:26:47.600Z,5.30
2018-08-20T20:29:16.115Z,5.13
2018-08-20T20:31:44.517Z,5.50
2018-08-20T20:34:13.018Z,5.47
2018-08-20T20:36:41.511Z,5.20
2018-08-20T20:39:11.572Z,5.30
2018-08-20T20:41:40.190Z,5.07
2018-08-20T20:44:09.553Z,5.00
2018-08-20T20:46:38.069Z,5.73
2018-08-20T20:49:06.592Z,5.50
2018-08-20T20:51:35.056Z,5.37
2018-08-20T20:54:03.539Z,5.70
2018-08-20T20:56:32.026Z,5.90
2018-08-20T20:59:00.469Z,6.63
2018-08-20T21:01:28.889Z,7.20
2018-08-20T21:03:57.405Z,6.97
2018-08-20T21:06:25.891Z,6.40
2018-08-20T21:08:54.391Z,6.30
2018-08-20T21:11:23.076Z,6.23
2018-08-20T21:13:51.549Z,6.10
2018-08-20T21:16:24.407Z,5.83
2018-08-20T21:18:54.120Z,5.80
2018-08-20T21:21:23.221Z,6.67
2018-08-20T21:23:51.720Z,6.23
2018-08-20T21:26:20.243Z,5.97
2018-08-20T21:28:49.898Z,6.23
2018-08-20T21:31:19.682Z,5.83
2018-08-20T21:33:48.714Z,6.03
2018-08-20T21:36:17.200Z,5.73
2018-08-20T21:38:45.680Z,6.33
2018-08-20T21:41:14.160Z,6.63
2018-08-20T21:43:46.267Z,7.40
2018-08-20T21:46:15.082Z,9.03
2018-08-20T21:48:44.065Z,8.90
2018-08-20T21:51:18.028Z,9.53
2018-08-20T21:53:46.491Z,9.67
2018-08-20T21:56:15.022Z,10.33
2018-08-20T21:58:44.225Z,9.53
2018-08-20T22:01:14.164Z,9.43
2018-08-20T22:03:43.135Z,10.13
2018-08-20T22:06:12.258Z,11.20
2018-08-20T22:08:40.821Z,11.00
2018-08-20T22:11:10.037Z,11.57
2018-08-20T22:13:38.599Z,13.07
2018-08-20T22:16:23.885Z,14.07
2018-08-20T22:19:00.140Z,14.17
2018-08-20T22:21:28.647Z,14.33
2018-08-20T22:23:59.041Z,13.80
2018-08-20T22:26:27.817Z,13.60
2018-08-20T22:28:56.439Z,13.17
2018-08-20T22:31:24.913Z,12.80
2018-08-20T22:33:59.249Z,11.87
2018-08-20T22:36:28.924Z,12.80
2018-08-20T22:38:58.698Z,13.13
2018-08-20T22:41:28.206Z,13.37
2018-08-20T22:43:56.691Z,13.40
2018-08-20T22:46:25.632Z,12.80
2018-08-20T22:48:56.131Z,12.87
2018-08-20T22:51:25.426Z,14.53
2018-08-20T22:53:59.474Z,14.80
2018-08-20T22:56:31.804Z,14.47
2018-08-20T22:59:03.932Z,15.83
2018-08-20T23:01:32.481Z,15.53
2018-08-20T23:04:01.014Z,15.03
2018-08-20T23:06:29.810Z,15.47
2018-08-20T23:08:58.382Z,14.87
2018-08-20T23:11:40.788Z,15.47
2018-08-20T23:14:11.086Z,14.73
2018-08-20T23:16:39.916Z,14.90
2018-08-20T23:19:09.115Z,15.80
2018-08-20T23:21:42.853Z,17.00
2018-08-20T23:24:12.114Z,16.27
2018-08-20T23:26:40.714Z,17.70
2018-08-20T23:29:09.448Z,18.03
2018-08-20T23:31:38.259Z,18.10
2018-08-20T23:34:11.799Z,17.43
2018-08-20T23:36:40.871Z,16.80
2018-08-20T23:39:11.390Z,17.13
2018-08-20T23:41:40.081Z,16.80
2018-08-20T23:44:08.805Z,16.23
2018-08-20T23:46:42.977Z,15.87
2018-08-20T23:49:11.465Z,15.33
2018-08-20T23:51:40.041Z,15.10
2018-08-20T23:54:09.325Z,14.60
2018-08-20T23:56:37.845Z,15.53
2018-08-20T23:59:06.397Z,15.73
